sensor_id;sensor_type;location;lat;lon;timestamp;P1;durP1;ratioP1;P2;durP2;ratioP2
29538;SDS011;16482;51.046;4.498;2023-05-14T08:47:12;24.13;;;20.83;;
29538;SDS011;16482;51.046;4.498;2023-05-14T08:52:10;24.00;;;21.27;;
29538;SDS011;16482;51.046;4.498;2023-05-14T08:54:37;24.10;;;20.60;;
29538;SDS011;16482;51.046;4.498;2023-05-14T08:57:04;23.95;;;21.05;;
29538;SDS011;16482;51.046;4.498;2023-05-14T08:59:32;24.50;;;22.00;;
29538;SDS011;16482;51.046;4.498;2023-05-14T09:02:00;24.02;;;21.48;;
29538;SDS011;16482;51.046;4.498;2023-05-14T09:04:26;23.65;;;21.10;;
29538;SDS011;16482;51.046;4.498;2023-05-14T09:06:53;24.45;;;21.95;;
29538;SDS011;16482;51.046;4.498;2023-05-14T09:09:23;24.05;;;21.52;;
29538;SDS011;16482;51.046;4.498;2023-05-14T09:11:51;23.70;;;21.30;;
29538;SDS011;16482;51.046;4.498;2023-05-14T09:14:25;24.08;;;21.77;;
29538;SDS011;16482;51.046;4.498;2023-05-14T09:16:51;24.33;;;21.83;;
29538;SDS011;16482;51.046;4.498;2023-05-14T09:19:27;24.02;;;21.70;;
29538;SDS011;16482;51.046;4.498;2023-05-14T09:21:55;24.42;;;21.83;;
29538;SDS011;16482;51.046;4.498;2023-05-14T09:24:24;23.65;;;21.38;;
29538;SDS011;16482;51.046;4.498;2023-05-14T09:26:51;23.83;;;21.42;;
29538;SDS011;16482;51.046;4.498;2023-05-14T09:29:22;23.95;;;21.42;;
29538;SDS011;16482;51.046;4.498;2023-05-14T09:31:53;24.50;;;21.98;;
29538;SDS011;16482;51.046;4.498;2023-05-14T09:34:23;24.25;;;21.75;;
29538;SDS011;16482;51.046;4.498;2023-05-14T09:36:57;24.20;;;21.70;;
29538;SDS011;16482;51.046;4.498;2023-05-14T09:39:24;24.23;;;21.80;;
29538;SDS011;16482;51.046;4.498;2023-05-14T09:41:50;23.40;;;21.10;;
29538;SDS011;16482;51.046;4.498;2023-05-14T09:44:24;32.72;;;20.35;;
29538;SDS011;16482;51.046;4.498;2023-05-14T09:46:52;24.05;;;21.52;;
29538;SDS011;16482;51.046;4.498;2023-05-14T09:49:25;23.88;;;21.55;;
29538;SDS011;16482;51.046;4.498;2023-05-14T09:51:52;23.88;;;21.40;;
29538;SDS011;16482;51.046;4.498;2023-05-14T09:54:21;24.02;;;21.67;;
29538;SDS011;16482;51.046;4.498;2023-05-14T09:56:50;24.50;;;22.02;;
29538;SDS011;16482;51.046;4.498;2023-05-14T09:59:24;24.38;;;21.95;;
29538;SDS011;16482;51.046;4.498;2023-05-14T10:01:53;23.85;;;21.42;;
29538;SDS011;16482;51.046;4.498;2023-05-14T10:04:22;22.95;;;20.73;;
29538;SDS011;16482;51.046;4.498;2023-05-14T10:06:51;25.92;;;21.92;;
29538;SDS011;16482;51.046;4.498;2023-05-14T10:09:21;23.58;;;21.27;;
29538;SDS011;16482;51.046;4.498;2023-05-14T10:11:52;24.73;;;22.23;;
29538;SDS011;16482;51.046;4.498;2023-05-14T10:14:31;24.75;;;22.35;;
29538;SDS011;16482;51.046;4.498;2023-05-14T10:17:02;24.35;;;21.95;;
29538;SDS011;16482;51.046;4.498;2023-05-14T10:19:32;25.15;;;22.30;;
29538;SDS011;16482;51.046;4.498;2023-05-14T10:22:04;24.00;;;21.60;;
29538;SDS011;16482;51.046;4.498;2023-05-14T10:24:32;23.48;;;21.17;;
29538;SDS011;16482;51.046;4.498;2023-05-14T10:26:59;23.88;;;21.58;;
29538;SDS011;16482;51.046;4.498;2023-05-14T10:29:35;25.23;;;22.55;;
29538;SDS011;16482;51.046;4.498;2023-05-14T10:32:03;24.80;;;22.40;;
29538;SDS011;16482;51.046;4.498;2023-05-14T10:34:37;24.95;;;22.45;;
29538;SDS011;16482;51.046;4.498;2023-05-14T10:37:11;24.40;;;22.05;;
29538;SDS011;16482;51.046;4.498;2023-05-14T10:45:14;24.33;;;21.92;;
29538;SDS011;16482;51.046;4.498;2023-05-14T10:47:41;24.15;;;21.85;;
29538;SDS011;16482;51.046;4.498;2023-05-14T10:50:12;26.08;;;22.77;;
29538;SDS011;16482;51.046;4.498;2023-05-14T10:52:43;24.80;;;22.38;;
29538;SDS011;16482;51.046;4.498;2023-05-14T10:55:13;24.83;;;22.25;;
29538;SDS011;16482;51.046;4.498;2023-05-14T10:57:44;23.63;;;21.33;;
29538;SDS011;16482;51.046;4.498;2023-05-14T11:00:11;23.63;;;21.42;;
29538;SDS011;16482;51.046;4.498;2023-05-14T11:02:47;24.42;;;22.05;;
29538;SDS011;16482;51.046;4.498;2023-05-14T11:05:14;24.63;;;21.63;;
29538;SDS011;16482;51.046;4.498;2023-05-14T11:07:44;23.85;;;21.52;;
29538;SDS011;16482;51.046;4.498;2023-05-14T11:10:12;24.58;;;22.08;;
29538;SDS011;16482;51.046;4.498;2023-05-14T11:12:43;23.58;;;21.17;;
29538;SDS011;16482;51.046;4.498;2023-05-14T11:15:14;22.55;;;20.27;;
29538;SDS011;16482;51.046;4.498;2023-05-14T11:17:42;22.30;;;20.25;;
29538;SDS011;16482;51.046;4.498;2023-05-14T11:20:18;22.58;;;20.25;;
29538;SDS011;16482;51.046;4.498;2023-05-14T11:22:45;22.98;;;20.67;;
29538;SDS011;16482;51.046;4.498;2023-05-14T11:25:13;23.25;;;20.67;;
29538;SDS011;16482;51.046;4.498;2023-05-14T11:27:43;22.33;;;20.25;;
29538;SDS011;16482;51.046;4.498;2023-05-14T11:30:13;22.50;;;20.33;;
29538;SDS011;16482;51.046;4.498;2023-05-14T11:32:43;22.52;;;20.33;;
29538;SDS011;16482;51.046;4.498;2023-05-14T11:35:13;22.88;;;20.75;;
29538;SDS011;16482;51.046;4.498;2023-05-14T11:37:42;22.20;;;20.10;;
29538;SDS011;16482;51.046;4.498;2023-05-14T11:40:15;21.70;;;19.60;;
29538;SDS011;16482;51.046;4.498;2023-05-14T11:42:41;23.00;;;20.67;;
29538;SDS011;16482;51.046;4.498;2023-05-14T11:45:22;22.45;;;20.10;;
29538;SDS011;16482;51.046;4.498;2023-05-14T11:47:51;21.88;;;19.58;;
29538;SDS011;16482;51.046;4.498;2023-05-14T11:50:19;22.70;;;20.60;;
29538;SDS011;16482;51.046;4.498;2023-05-14T11:52:48;22.35;;;20.23;;
29538;SDS011;16482;51.046;4.498;2023-05-14T11:55:15;21.67;;;19.55;;
29538;SDS011;16482;51.046;4.498;2023-05-14T11:57:44;21.80;;;19.50;;
29538;SDS011;16482;51.046;4.498;2023-05-14T12:00:13;22.90;;;20.50;;
29538;SDS011;16482;51.046;4.498;2023-05-14T12:02:46;22.65;;;20.45;;
29538;SDS011;16482;51.046;4.498;2023-05-14T12:05:13;21.42;;;19.33;;
29538;SDS011;16482;51.046;4.498;2023-05-14T12:07:48;21.92;;;19.73;;
29538;SDS011;16482;51.046;4.498;2023-05-14T12:10:14;21.45;;;19.35;;
29538;SDS011;16482;51.046;4.498;2023-05-14T12:12:43;21.67;;;19.58;;
29538;SDS011;16482;51.046;4.498;2023-05-14T12:15:11;21.08;;;19.02;;
29538;SDS011;16482;51.046;4.498;2023-05-14T12:17:45;21.55;;;19.55;;
29538;SDS011;16482;51.046;4.498;2023-05-14T12:20:14;22.00;;;19.83;;
29538;SDS011;16482;51.046;4.498;2023-05-14T12:22:41;21.85;;;19.65;;
29538;SDS011;16482;51.046;4.498;2023-05-14T12:25:12;21.60;;;19.50;;
29538;SDS011;16482;51.046;4.498;2023-05-14T12:27:47;21.42;;;19.33;;
29538;SDS011;16482;51.046;4.498;2023-05-14T12:30:13;21.67;;;19.60;;
29538;SDS011;16482;51.046;4.498;2023-05-14T12:32:42;21.95;;;19.73;;
29538;SDS011;16482;51.046;4.498;2023-05-14T12:35:16;21.67;;;19.58;;
29538;SDS011;16482;51.046;4.498;2023-05-14T12:37:41;21.20;;;19.08;;
29538;SDS011;16482;51.046;4.498;2023-05-14T12:40:10;21.10;;;18.90;;
29538;SDS011;16482;51.046;4.498;2023-05-14T12:42:42;21.65;;;19.63;;
29538;SDS011;16482;51.046;4.498;2023-05-14T12:45:17;21.90;;;19.75;;
29538;SDS011;16482;51.046;4.498;2023-05-14T12:47:43;21.73;;;19.50;;
29538;SDS011;16482;51.046;4.498;2023-05-14T12:50:16;20.73;;;18.60;;
29538;SDS011;16482;51.046;4.498;2023-05-14T12:52:42;21.25;;;19.15;;
29538;SDS011;16482;51.046;4.498;2023-05-14T12:55:11;20.02;;;18.00;;
29538;SDS011;16482;51.046;4.498;2023-05-14T12:57:42;18.75;;;16.83;;
29538;SDS011;16482;51.046;4.498;2023-05-14T13:00:16;25.70;;;19.42;;
29538;SDS011;16482;51.046;4.498;2023-05-14T13:02:42;20.90;;;18.80;;
29538;SDS011;16482;51.046;4.498;2023-05-14T13:05:16;20.27;;;18.27;;
29538;SDS011;16482;51.046;4.498;2023-05-14T13:07:42;19.33;;;17.50;;
29538;SDS011;16482;51.046;4.498;2023-05-14T13:10:15;18.40;;;16.70;;
29538;SDS011;16482;51.046;4.498;2023-05-14T13:12:42;19.85;;;17.88;;
29538;SDS011;16482;51.046;4.498;2023-05-14T13:15:11;20.02;;;17.95;;
29538;SDS011;16482;51.046;4.498;2023-05-14T13:17:42;19.98;;;18.08;;
29538;SDS011;16482;51.046;4.498;2023-05-14T13:20:17;20.55;;;18.05;;
29538;SDS011;16482;51.046;4.498;2023-05-14T13:22:43;19.05;;;17.25;;
29538;SDS011;16482;51.046;4.498;2023-05-14T13:25:12;19.23;;;17.27;;
29538;SDS011;16482;51.046;4.498;2023-05-14T13:27:45;23.02;;;18.65;;
29538;SDS011;16482;51.046;4.498;2023-05-14T13:30:15;19.20;;;17.35;;
29538;SDS011;16482;51.046;4.498;2023-05-14T13:32:42;19.27;;;17.48;;
29538;SDS011;16482;51.046;4.498;2023-05-14T13:35:15;19.88;;;18.05;;
29538;SDS011;16482;51.046;4.498;2023-05-14T13:37:41;20.10;;;17.67;;
29538;SDS011;16482;51.046;4.498;2023-05-14T13:40:15;19.73;;;17.92;;
29538;SDS011;16482;51.046;4.498;2023-05-14T13:42:41;19.73;;;17.60;;
29538;SDS011;16482;51.046;4.498;2023-05-14T13:45:15;18.98;;;17.10;;
29538;SDS011;16482;51.046;4.498;2023-05-14T13:47:43;19.40;;;17.35;;
29538;SDS011;16482;51.046;4.498;2023-05-14T13:50:12;20.67;;;18.50;;
29538;SDS011;16482;51.046;4.498;2023-05-14T13:52:41;19.27;;;17.25;;
29538;SDS011;16482;51.046;4.498;2023-05-14T13:55:15;18.27;;;16.35;;
29538;SDS011;16482;51.046;4.498;2023-05-14T13:57:41;19.48;;;17.30;;
29538;SDS011;16482;51.046;4.498;2023-05-14T14:00:14;18.85;;;16.98;;
29538;SDS011;16482;51.046;4.498;2023-05-14T14:02:41;19.60;;;17.17;;
29538;SDS011;16482;51.046;4.498;2023-05-14T14:05:14;19.45;;;17.33;;
29538;SDS011;16482;51.046;4.498;2023-05-14T14:07:42;18.48;;;16.58;;
29538;SDS011;16482;51.046;4.498;2023-05-14T14:10:17;18.30;;;16.60;;
29538;SDS011;16482;51.046;4.498;2023-05-14T14:12:43;17.67;;;15.77;;
29538;SDS011;16482;51.046;4.498;2023-05-14T14:15:12;18.65;;;16.60;;
29538;SDS011;16482;51.046;4.498;2023-05-14T14:17:41;18.92;;;17.02;;
29538;SDS011;16482;51.046;4.498;2023-05-14T14:20:10;17.33;;;15.63;;
29538;SDS011;16482;51.046;4.498;2023-05-14T14:22:36;16.90;;;15.20;;
29538;SDS011;16482;51.046;4.498;2023-05-14T14:25:13;18.48;;;16.67;;
29538;SDS011;16482;51.046;4.498;2023-05-14T14:27:41;16.55;;;14.95;;
29538;SDS011;16482;51.046;4.498;2023-05-14T14:30:16;18.15;;;16.23;;
29538;SDS011;16482;51.046;4.498;2023-05-14T14:32:46;17.85;;;16.13;;
29538;SDS011;16482;51.046;4.498;2023-05-14T14:35:14;16.50;;;14.80;;
29538;SDS011;16482;51.046;4.498;2023-05-14T14:37:41;17.20;;;14.65;;
29538;SDS011;16482;51.046;4.498;2023-05-14T14:40:18;17.35;;;15.65;;
29538;SDS011;16482;51.046;4.498;2023-05-14T14:42:44;17.23;;;15.63;;
29538;SDS011;16482;51.046;4.498;2023-05-14T14:45:10;17.60;;;14.93;;
29538;SDS011;16482;51.046;4.498;2023-05-14T14:47:48;15.88;;;13.98;;
29538;SDS011;16482;51.046;4.498;2023-05-14T14:50:14;16.38;;;14.68;;
29538;SDS011;16482;51.046;4.498;2023-05-14T14:52:47;16.88;;;15.25;;
29538;SDS011;16482;51.046;4.498;2023-05-14T14:55:13;16.75;;;14.48;;
29538;SDS011;16482;51.046;4.498;2023-05-14T14:57:48;15.77;;;14.18;;
29538;SDS011;16482;51.046;4.498;2023-05-14T15:00:14;17.05;;;14.68;;
29538;SDS011;16482;51.046;4.498;2023-05-14T15:02:40;15.32;;;13.80;;
29538;SDS011;16482;51.046;4.498;2023-05-14T15:05:15;16.60;;;14.90;;
29538;SDS011;16482;51.046;4.498;2023-05-14T15:07:41;16.58;;;14.93;;
29538;SDS011;16482;51.046;4.498;2023-05-14T15:10:16;15.63;;;13.85;;
29538;SDS011;16482;51.046;4.498;2023-05-14T15:12:42;16.10;;;14.40;;
29538;SDS011;16482;51.046;4.498;2023-05-14T15:15:11;15.35;;;12.52;;
29538;SDS011;16482;51.046;4.498;2023-05-14T15:17:42;14.63;;;12.93;;
29538;SDS011;16482;51.046;4.498;2023-05-14T15:20:11;13.77;;;10.45;;
29538;SDS011;16482;51.046;4.498;2023-05-14T15:22:46;12.57;;;10.75;;
29538;SDS011;16482;51.046;4.498;2023-05-14T15:25:14;16.65;;;10.40;;
29538;SDS011;16482;51.046;4.498;2023-05-14T15:27:42;15.80;;;9.55;;
29538;SDS011;16482;51.046;4.498;2023-05-14T15:30:11;11.57;;;8.82;;
29538;SDS011;16482;51.046;4.498;2023-05-14T15:32:40;13.90;;;9.88;;
29538;SDS011;16482;51.046;4.498;2023-05-14T15:35:14;13.48;;;10.05;;
29538;SDS011;16482;51.046;4.498;2023-05-14T15:37:41;13.27;;;8.80;;
29538;SDS011;16482;51.046;4.498;2023-05-14T15:40:17;14.75;;;8.80;;
29538;SDS011;16482;51.046;4.498;2023-05-14T15:45:11;10.50;;;7.93;;
29538;SDS011;16482;51.046;4.498;2023-05-14T15:47:44;11.00;;;8.70;;
29538;SDS011;16482;51.046;4.498;2023-05-14T15:50:10;15.70;;;9.48;;
29538;SDS011;16482;51.046;4.498;2023-05-14T15:52:37;11.32;;;8.02;;
29538;SDS011;16482;51.046;4.498;2023-05-14T15:55:15;12.45;;;8.50;;
29538;SDS011;16482;51.046;4.498;2023-05-14T15:57:41;12.77;;;8.18;;
29538;SDS011;16482;51.046;4.498;2023-05-14T16:00:17;10.68;;;7.80;;
29538;SDS011;16482;51.046;4.498;2023-05-14T16:02:43;10.93;;;8.27;;
29538;SDS011;16482;51.046;4.498;2023-05-14T16:05:12;10.68;;;7.88;;
29538;SDS011;16482;51.046;4.498;2023-05-14T16:07:48;11.15;;;8.00;;
29538;SDS011;16482;51.046;4.498;2023-05-14T16:10:14;10.93;;;8.65;;
29538;SDS011;16482;51.046;4.498;2023-05-14T16:12:40;9.90;;;7.50;;
29538;SDS011;16482;51.046;4.498;2023-05-14T16:15:11;10.40;;;7.90;;
29538;SDS011;16482;51.046;4.498;2023-05-14T16:17:48;11.02;;;8.27;;
29538;SDS011;16482;51.046;4.498;2023-05-14T16:20:15;11.05;;;8.15;;
29538;SDS011;16482;51.046;4.498;2023-05-14T16:22:41;9.05;;;7.25;;
29538;SDS011;16482;51.046;4.498;2023-05-14T16:25:14;9.10;;;7.10;;
29538;SDS011;16482;51.046;4.498;2023-05-14T16:27:42;9.30;;;7.20;;
29538;SDS011;16482;51.046;4.498;2023-05-14T16:30:16;8.45;;;7.00;;
29538;SDS011;16482;51.046;4.498;2023-05-14T16:32:42;9.75;;;7.18;;
29538;SDS011;16482;51.046;4.498;2023-05-14T16:35:13;11.70;;;7.28;;
29538;SDS011;16482;51.046;4.498;2023-05-14T16:37:43;10.10;;;7.28;;
29538;SDS011;16482;51.046;4.498;2023-05-14T16:40:12;9.80;;;7.22;;
29538;SDS011;16482;51.046;4.498;2023-05-14T16:42:42;9.10;;;7.65;;
29538;SDS011;16482;51.046;4.498;2023-05-14T16:45:11;10.90;;;7.60;;
29538;SDS011;16482;51.046;4.498;2023-05-14T16:47:42;12.15;;;8.00;;
29538;SDS011;16482;51.046;4.498;2023-05-14T16:50:11;10.63;;;7.10;;
29538;SDS011;16482;51.046;4.498;2023-05-14T16:52:45;9.88;;;7.60;;
29538;SDS011;16482;51.046;4.498;2023-05-14T16:55:14;10.25;;;7.40;;
29538;SDS011;16482;51.046;4.498;2023-05-14T16:57:43;9.23;;;7.35;;
29538;SDS011;16482;51.046;4.498;2023-05-14T17:00:12;9.45;;;7.53;;
29538;SDS011;16482;51.046;4.498;2023-05-14T17:02:46;9.80;;;7.95;;
29538;SDS011;16482;51.046;4.498;2023-05-14T17:05:14;10.30;;;8.20;;
29538;SDS011;16482;51.046;4.498;2023-05-14T17:07:43;9.30;;;8.13;;
29538;SDS011;16482;51.046;4.498;2023-05-14T17:10:11;10.80;;;7.65;;
29538;SDS011;16482;51.046;4.498;2023-05-14T17:12:45;10.68;;;8.07;;
29538;SDS011;16482;51.046;4.498;2023-05-14T17:15:13;10.88;;;8.05;;
29538;SDS011;16482;51.046;4.498;2023-05-14T17:17:41;8.52;;;7.68;;
29538;SDS011;16482;51.046;4.498;2023-05-14T17:20:15;9.60;;;7.18;;
29538;SDS011;16482;51.046;4.498;2023-05-14T17:22:43;13.57;;;8.98;;
29538;SDS011;16482;51.046;4.498;2023-05-14T17:25:17;12.75;;;8.75;;
29538;SDS011;16482;51.046;4.498;2023-05-14T17:27:43;11.43;;;7.97;;
29538;SDS011;16482;51.046;4.498;2023-05-14T17:30:12;10.43;;;8.02;;
29538;SDS011;16482;51.046;4.498;2023-05-14T17:32:41;9.32;;;8.07;;
29538;SDS011;16482;51.046;4.498;2023-05-14T17:35:14;12.23;;;8.55;;
29538;SDS011;16482;51.046;4.498;2023-05-14T17:37:48;11.30;;;8.00;;
29538;SDS011;16482;51.046;4.498;2023-05-14T17:40:14;10.15;;;8.07;;
29538;SDS011;16482;51.046;4.498;2023-05-14T17:42:49;11.73;;;8.43;;
29538;SDS011;16482;51.046;4.498;2023-05-14T17:45:15;8.82;;;7.90;;
29538;SDS011;16482;51.046;4.498;2023-05-14T17:47:44;9.95;;;8.25;;
29538;SDS011;16482;51.046;4.498;2023-05-14T17:50:20;10.73;;;8.25;;
29538;SDS011;16482;51.046;4.498;2023-05-14T17:52:46;10.10;;;8.13;;
29538;SDS011;16482;51.046;4.498;2023-05-14T17:55:14;9.27;;;7.40;;
29538;SDS011;16482;51.046;4.498;2023-05-14T17:57:43;10.65;;;7.78;;
29538;SDS011;16482;51.046;4.498;2023-05-14T18:00:19;9.85;;;7.65;;
29538;SDS011;16482;51.046;4.498;2023-05-14T18:02:45;10.45;;;7.72;;
29538;SDS011;16482;51.046;4.498;2023-05-14T18:05:11;9.23;;;8.20;;
29538;SDS011;16482;51.046;4.498;2023-05-14T18:07:44;10.38;;;8.25;;
29538;SDS011;16482;51.046;4.498;2023-05-14T18:10:13;9.00;;;7.28;;
29538;SDS011;16482;51.046;4.498;2023-05-14T18:12:42;10.02;;;7.80;;
29538;SDS011;16482;51.046;4.498;2023-05-14T18:15:16;9.80;;;7.80;;
29538;SDS011;16482;51.046;4.498;2023-05-14T18:17:44;7.97;;;7.18;;
29538;SDS011;16482;51.046;4.498;2023-05-14T18:20:19;10.98;;;8.02;;
29538;SDS011;16482;51.046;4.498;2023-05-14T18:22:45;9.52;;;7.80;;
29538;SDS011;16482;51.046;4.498;2023-05-14T18:25:11;8.95;;;7.97;;
29538;SDS011;16482;51.046;4.498;2023-05-14T18:27:47;9.15;;;7.65;;
29538;SDS011;16482;51.046;4.498;2023-05-14T18:30:13;12.23;;;7.90;;
29538;SDS011;16482;51.046;4.498;2023-05-14T18:32:43;9.15;;;8.10;;
29538;SDS011;16482;51.046;4.498;2023-05-14T18:35:18;8.57;;;7.40;;
29538;SDS011;16482;51.046;4.498;2023-05-14T18:37:45;8.65;;;7.75;;
29538;SDS011;16482;51.046;4.498;2023-05-14T18:40:14;8.68;;;7.57;;
29538;SDS011;16482;51.046;4.498;2023-05-14T18:42:43;9.10;;;7.45;;
29538;SDS011;16482;51.046;4.498;2023-05-14T18:45:16;8.75;;;7.70;;
29538;SDS011;16482;51.046;4.498;2023-05-14T18:47:45;9.18;;;7.57;;
29538;SDS011;16482;51.046;4.498;2023-05-14T18:50:11;9.43;;;7.35;;
29538;SDS011;16482;51.046;4.498;2023-05-14T18:52:45;8.30;;;7.00;;
29538;SDS011;16482;51.046;4.498;2023-05-14T18:55:14;9.23;;;6.88;;
29538;SDS011;16482;51.046;4.498;2023-05-14T18:57:43;8.45;;;7.20;;
29538;SDS011;16482;51.046;4.498;2023-05-14T19:00:12;8.45;;;7.13;;
29538;SDS011;16482;51.046;4.498;2023-05-14T19:02:44;7.28;;;6.50;;
29538;SDS011;16482;51.046;4.498;2023-05-14T19:05:13;9.43;;;7.05;;
29538;SDS011;16482;51.046;4.498;2023-05-14T19:07:48;7.28;;;6.57;;
29538;SDS011;16482;51.046;4.498;2023-05-14T19:10:14;8.20;;;7.35;;
29538;SDS011;16482;51.046;4.498;2023-05-14T19:12:44;8.23;;;6.70;;
29538;SDS011;16482;51.046;4.498;2023-05-14T19:15:11;7.43;;;6.30;;
29538;SDS011;16482;51.046;4.498;2023-05-14T19:17:45;7.50;;;6.72;;
29538;SDS011;16482;51.046;4.498;2023-05-14T19:20:16;8.68;;;6.47;;
29538;SDS011;16482;51.046;4.498;2023-05-14T19:22:42;8.88;;;6.15;;
29538;SDS011;16482;51.046;4.498;2023-05-14T19:25:15;8.07;;;6.45;;
29538;SDS011;16482;51.046;4.498;2023-05-14T19:27:42;8.85;;;6.68;;
29538;SDS011;16482;51.046;4.498;2023-05-14T19:30:14;7.20;;;6.50;;
29538;SDS011;16482;51.046;4.498;2023-05-14T19:32:44;8.07;;;6.65;;
29538;SDS011;16482;51.046;4.498;2023-05-14T19:35:18;8.25;;;6.07;;
29538;SDS011;16482;51.046;4.498;2023-05-14T19:37:47;9.10;;;7.10;;
29538;SDS011;16482;51.046;4.498;2023-05-14T19:40:15;7.50;;;6.63;;
29538;SDS011;16482;51.046;4.498;2023-05-14T19:42:50;6.60;;;5.97;;
29538;SDS011;16482;51.046;4.498;2023-05-14T19:45:16;8.38;;;6.55;;
29538;SDS011;16482;51.046;4.498;2023-05-14T19:47:45;8.73;;;6.38;;
29538;SDS011;16482;51.046;4.498;2023-05-14T19:50:14;7.22;;;5.97;;
29538;SDS011;16482;51.046;4.498;2023-05-14T19:52:48;8.15;;;6.45;;
29538;SDS011;16482;51.046;4.498;2023-05-14T19:55:16;9.00;;;6.30;;
29538;SDS011;16482;51.046;4.498;2023-05-14T19:57:45;7.60;;;5.88;;
29538;SDS011;16482;51.046;4.498;2023-05-14T20:00:20;8.13;;;6.68;;
29538;SDS011;16482;51.046;4.498;2023-05-14T20:02:46;7.07;;;6.38;;
29538;SDS011;16482;51.046;4.498;2023-05-14T20:05:15;8.50;;;7.38;;
29538;SDS011;16482;51.046;4.498;2023-05-14T20:07:44;7.78;;;6.30;;
29538;SDS011;16482;51.046;4.498;2023-05-14T20:10:15;9.50;;;6.68;;
29538;SDS011;16482;51.046;4.498;2023-05-14T20:12:44;7.90;;;7.00;;
29538;SDS011;16482;51.046;4.498;2023-05-14T20:15:17;7.30;;;6.07;;
29538;SDS011;16482;51.046;4.498;2023-05-14T20:17:46;8.13;;;6.63;;
29538;SDS011;16482;51.046;4.498;2023-05-14T20:20:21;7.72;;;6.40;;
29538;SDS011;16482;51.046;4.498;2023-05-14T20:22:48;6.95;;;6.03;;
29538;SDS011;16482;51.046;4.498;2023-05-14T20:25:14;7.75;;;6.07;;
29538;SDS011;16482;51.046;4.498;2023-05-14T20:27:49;7.75;;;6.22;;
29538;SDS011;16482;51.046;4.498;2023-05-14T20:30:16;6.68;;;5.95;;
29538;SDS011;16482;51.046;4.498;2023-05-14T20:32:45;8.52;;;6.22;;
29538;SDS011;16482;51.046;4.498;2023-05-14T20:35:14;10.15;;;6.30;;
29538;SDS011;16482;51.046;4.498;2023-05-14T20:37:47;7.85;;;6.00;;
29538;SDS011;16482;51.046;4.498;2023-05-14T20:40:13;6.40;;;5.80;;
29538;SDS011;16482;51.046;4.498;2023-05-14T20:42:47;7.80;;;6.60;;
29538;SDS011;16482;51.046;4.498;2023-05-14T20:45:17;8.88;;;6.38;;
29538;SDS011;16482;51.046;4.498;2023-05-14T20:47:43;9.07;;;6.78;;
29538;SDS011;16482;51.046;4.498;2023-05-14T20:50:16;8.32;;;6.63;;
29538;SDS011;16482;51.046;4.498;2023-05-14T20:52:51;7.28;;;6.10;;
29538;SDS011;16482;51.046;4.498;2023-05-14T20:55:17;8.05;;;6.38;;
29538;SDS011;16482;51.046;4.498;2023-05-14T20:57:45;6.68;;;5.85;;
29538;SDS011;16482;51.046;4.498;2023-05-14T21:00:16;9.98;;;6.18;;
29538;SDS011;16482;51.046;4.498;2023-05-14T21:02:45;7.07;;;5.70;;
29538;SDS011;16482;51.046;4.498;2023-05-14T21:05:15;6.07;;;5.47;;
29538;SDS011;16482;51.046;4.498;2023-05-14T21:07:44;8.00;;;6.10;;
29538;SDS011;16482;51.046;4.498;2023-05-14T21:10:13;6.60;;;5.90;;
29538;SDS011;16482;51.046;4.498;2023-05-14T21:12:46;7.25;;;5.63;;
29538;SDS011;16482;51.046;4.498;2023-05-14T21:15:15;6.43;;;5.50;;
29538;SDS011;16482;51.046;4.498;2023-05-14T21:17:50;6.10;;;5.50;;
29538;SDS011;16482;51.046;4.498;2023-05-14T21:20:16;8.25;;;6.07;;
29538;SDS011;16482;51.046;4.498;2023-05-14T21:22:51;6.68;;;6.05;;
29538;SDS011;16482;51.046;4.498;2023-05-14T21:25:17;7.28;;;5.95;;
29538;SDS011;16482;51.046;4.498;2023-05-14T21:27:43;8.88;;;5.80;;
29538;SDS011;16482;51.046;4.498;2023-05-14T21:30:15;7.40;;;6.00;;
29538;SDS011;16482;51.046;4.498;2023-05-14T21:32:43;7.55;;;6.00;;
29538;SDS011;16482;51.046;4.498;2023-05-14T21:35:15;6.93;;;5.78;;
29538;SDS011;16482;51.046;4.498;2023-05-14T21:37:44;7.32;;;5.43;;
29538;SDS011;16482;51.046;4.498;2023-05-14T21:40:15;7.07;;;6.05;;
29538;SDS011;16482;51.046;4.498;2023-05-14T21:42:48;8.48;;;6.47;;
29538;SDS011;16482;51.046;4.498;2023-05-14T21:45:14;7.47;;;6.43;;
29538;SDS011;16482;51.046;4.498;2023-05-14T21:47:43;7.75;;;7.00;;
29538;SDS011;16482;51.046;4.498;2023-05-14T21:50:14;6.90;;;6.20;;
29538;SDS011;16482;51.046;4.498;2023-05-14T21:52:49;7.30;;;5.70;;
29538;SDS011;16482;51.046;4.498;2023-05-14T21:55:15;6.95;;;5.97;;
29538;SDS011;16482;51.046;4.498;2023-05-14T21:57:50;8.50;;;6.43;;
29538;SDS011;16482;51.046;4.498;2023-05-14T22:00:16;7.22;;;6.38;;
29538;SDS011;16482;51.046;4.498;2023-05-14T22:02:47;6.70;;;5.93;;
29538;SDS011;16482;51.046;4.498;2023-05-14T22:05:15;8.07;;;6.07;;
29538;SDS011;16482;51.046;4.498;2023-05-14T22:07:41;7.50;;;6.40;;
29538;SDS011;16482;51.046;4.498;2023-05-14T22:10:07;7.20;;;6.28;;
29538;SDS011;16482;51.046;4.498;2023-05-14T22:12:36;6.57;;;5.82;;
29538;SDS011;16482;51.046;4.498;2023-05-14T22:15:02;6.40;;;5.72;;
29538;SDS011;16482;51.046;4.498;2023-05-14T22:17:38;6.55;;;5.90;;
29538;SDS011;16482;51.046;4.498;2023-05-14T22:20:04;6.85;;;6.15;;
29538;SDS011;16482;51.046;4.498;2023-05-14T22:22:33;6.85;;;6.18;;
29538;SDS011;16482;51.046;4.498;2023-05-14T22:25:07;7.28;;;6.57;;
29538;SDS011;16482;51.046;4.498;2023-05-14T22:27:33;7.20;;;6.50;;
29538;SDS011;16482;51.046;4.498;2023-05-14T22:30:02;7.38;;;6.20;;
29538;SDS011;16482;51.046;4.498;2023-05-14T22:32:36;6.95;;;6.25;;
29538;SDS011;16482;51.046;4.498;2023-05-14T22:35:05;8.10;;;6.93;;
29538;SDS011;16482;51.046;4.498;2023-05-14T22:37:40;7.22;;;6.53;;
29538;SDS011;16482;51.046;4.498;2023-05-14T22:40:06;6.55;;;5.90;;
29538;SDS011;16482;51.046;4.498;2023-05-14T22:42:33;6.45;;;5.85;;
29538;SDS011;16482;51.046;4.498;2023-05-14T22:45:08;7.32;;;6.53;;
29538;SDS011;16482;51.046;4.498;2023-05-14T22:47:34;7.82;;;6.47;;
29538;SDS011;16482;51.046;4.498;2023-05-14T22:50:04;9.07;;;6.82;;
29538;SDS011;16482;51.046;4.498;2023-05-14T22:52:35;10.02;;;6.78;;
29538;SDS011;16482;51.046;4.498;2023-05-14T22:55:04;7.50;;;6.72;;
29538;SDS011;16482;51.046;4.498;2023-05-14T22:57:33;7.55;;;6.85;;
29538;SDS011;16482;51.046;4.498;2023-05-14T23:00:05;7.78;;;6.45;;
29538;SDS011;16482;51.046;4.498;2023-05-14T23:02:34;7.30;;;6.65;;
29538;SDS011;16482;51.046;4.498;2023-05-14T23:05:02;8.13;;;6.45;;
29538;SDS011;16482;51.046;4.498;2023-05-14T23:07:34;9.23;;;6.53;;
29538;SDS011;16482;51.046;4.498;2023-05-14T23:10:03;8.27;;;6.90;;
29538;SDS011;16482;51.046;4.498;2023-05-14T23:12:35;7.55;;;6.70;;
29538;SDS011;16482;51.046;4.498;2023-05-14T23:15:08;8.63;;;6.80;;
29538;SDS011;16482;51.046;4.498;2023-05-14T23:17:34;8.90;;;6.90;;
29538;SDS011;16482;51.046;4.498;2023-05-14T23:20:08;7.25;;;6.30;;
29538;SDS011;16482;51.046;4.498;2023-05-14T23:22:37;7.90;;;6.45;;
29538;SDS011;16482;51.046;4.498;2023-05-14T23:25:06;7.25;;;6.32;;
29538;SDS011;16482;51.046;4.498;2023-05-14T23:27:35;6.93;;;6.13;;
29538;SDS011;16482;51.046;4.498;2023-05-14T23:30:09;7.80;;;6.60;;
29538;SDS011;16482;51.046;4.498;2023-05-14T23:32:35;8.98;;;6.53;;
29538;SDS011;16482;51.046;4.498;2023-05-14T23:35:04;7.35;;;6.50;;
29538;SDS011;16482;51.046;4.498;2023-05-14T23:37:33;7.93;;;6.75;;
29538;SDS011;16482;51.046;4.498;2023-05-14T23:40:08;7.22;;;6.32;;
29538;SDS011;16482;51.046;4.498;2023-05-14T23:42:35;7.07;;;6.32;;
29538;SDS011;16482;51.046;4.498;2023-05-14T23:45:03;6.63;;;5.97;;